createdAt,value
2018-03-29T00:01:57.602Z,96127.28
2018-03-29T00:04:25.092Z,96133.00
2018-03-29T00:06:52.583Z,96138.66
2018-03-29T00:09:20.096Z,96139.72
2018-03-29T00:11:47.590Z,96139.55
2018-03-29T00:14:15.081Z,96136.44
2018-03-29T00:16:42.594Z,96147.55
2018-03-29T00:19:10.082Z,96127.47
2018-03-29T00:21:37.566Z,96153.63
2018-03-29T00:24:05.106Z,96147.66
2018-03-29T00:26:32.587Z,96160.63
2018-03-29T00:29:00.088Z,96163.16
2018-03-29T00:31:27.628Z,96169.13
2018-03-29T00:33:55.107Z,96175.56
2018-03-29T00:36:22.590Z,96168.42
2018-03-29T00:38:50.114Z,96179.66
2018-03-29T00:41:17.599Z,96169.94
2018-03-29T00:43:45.078Z,96174.48
2018-03-29T00:46:12.588Z,96180.31
2018-03-29T00:48:40.070Z,96173.06
2018-03-29T00:51:07.574Z,96181.33
2018-03-29T00:53:45.122Z,96184.27
2018-03-29T00:56:12.590Z,96192.14
2018-03-29T00:58:40.072Z,96184.91
2018-03-29T01:01:07.629Z,96184.45
2018-03-29T01:03:36.050Z,96188.82
2018-03-29T01:06:03.526Z,96199.59
2018-03-29T01:08:33.747Z,96208.80
2018-03-29T01:11:01.247Z,96219.59
2018-03-29T01:13:28.726Z,96218.17
2018-03-29T01:15:56.267Z,96234.03
2018-03-29T01:18:23.759Z,96249.03
2018-03-29T01:20:51.238Z,96252.45
2018-03-29T01:23:18.760Z,96253.53
2018-03-29T01:25:46.256Z,96273.70
2018-03-29T01:28:13.747Z,96282.30
2018-03-29T01:30:41.283Z,96281.13
2018-03-29T01:33:08.778Z,96290.66
2018-03-29T01:35:36.275Z,96291.10
2018-03-29T01:38:03.787Z,96294.48
2018-03-29T01:40:31.304Z,96320.37
2018-03-29T01:42:58.831Z,96319.00
2018-03-29T01:45:26.347Z,96316.19
2018-03-29T01:47:53.830Z,96325.84
2018-03-29T01:50:21.323Z,96342.44
2018-03-29T01:52:48.859Z,96339.80
2018-03-29T01:55:16.349Z,96339.48
2018-03-29T01:57:43.842Z,96347.75
2018-03-29T02:00:11.363Z,96355.23
2018-03-29T02:02:38.854Z,96353.93
2018-03-29T02:05:06.346Z,96358.66
2018-03-29T02:07:33.881Z,96370.83
2018-03-29T02:10:01.370Z,96381.00
2018-03-29T02:12:28.855Z,96377.30
2018-03-29T02:14:56.370Z,96372.70
2018-03-29T02:17:23.860Z,96384.56
2018-03-29T02:19:51.351Z,96392.16
2018-03-29T02:22:18.867Z,96398.30
2018-03-29T02:24:46.359Z,96401.38
2018-03-29T02:27:13.849Z,96407.41
2018-03-29T02:29:41.366Z,96401.30
2018-03-29T02:32:08.858Z,96410.98
2018-03-29T02:34:36.351Z,96407.30
2018-03-29T02:37:03.862Z,96406.18
2018-03-29T02:39:31.350Z,96403.27
2018-03-29T02:41:59.884Z,96408.73
2018-03-29T02:44:27.452Z,96406.62
2018-03-29T02:46:54.927Z,96407.16
2018-03-29T02:49:22.410Z,96416.32
2018-03-29T02:51:49.984Z,96417.55
2018-03-29T02:54:17.431Z,96419.63
2018-03-29T02:56:44.914Z,96430.72
2018-03-29T02:59:12.427Z,96425.68
2018-03-29T03:01:39.912Z,96431.52
2018-03-29T03:04:07.434Z,96429.86
2018-03-29T03:06:34.938Z,96420.12
2018-03-29T03:09:02.500Z,96428.63
2018-03-29T03:11:29.991Z,96440.11
2018-03-29T03:13:57.503Z,96443.89
2018-03-29T03:16:24.996Z,96451.77
2018-03-29T03:18:52.482Z,96452.14
2018-03-29T03:21:19.996Z,96463.24
2018-03-29T03:23:47.482Z,96463.94
2018-03-29T03:26:14.968Z,96470.89
2018-03-29T03:28:42.479Z,96475.17
2018-03-29T03:31:09.967Z,96474.91
2018-03-29T03:33:37.452Z,96480.97
2018-03-29T03:36:04.967Z,96488.50
2018-03-29T03:38:32.480Z,96491.13
2018-03-29T03:41:00.021Z,96495.52
2018-03-29T03:43:27.530Z,96506.06
2018-03-29T03:45:55.060Z,96501.52
2018-03-29T03:48:22.589Z,96519.22
2018-03-29T03:50:50.839Z,96519.52
2018-03-29T03:53:18.335Z,96530.66
2018-03-29T03:55:45.826Z,96529.81
2018-03-29T03:58:13.486Z,96529.94
2018-03-29T04:00:41.102Z,96529.36
2018-03-29T04:03:08.962Z,96533.66
2018-03-29T04:05:36.513Z,96535.19
2018-03-29T04:08:04.106Z,96534.67
2018-03-29T04:10:31.591Z,96544.72
2018-03-29T04:12:59.104Z,96547.17
2018-03-29T04:15:26.596Z,96544.94
2018-03-29T04:17:54.077Z,96554.86
2018-03-29T04:20:21.594Z,96554.86
2018-03-29T04:22:49.080Z,96546.00
2018-03-29T04:25:16.562Z,96542.03
2018-03-29T04:27:44.069Z,96544.32
2018-03-29T04:30:11.555Z,96542.59
2018-03-29T04:32:39.034Z,96540.99
2018-03-29T04:35:06.550Z,96541.56
2018-03-29T04:37:34.031Z,96535.66
2018-03-29T04:40:01.525Z,96536.55
2018-03-29T04:42:29.038Z,96536.67
2018-03-29T04:44:56.529Z,96553.59
2018-03-29T04:47:24.015Z,96545.81
2018-03-29T04:49:51.539Z,96552.39
2018-03-29T04:52:19.030Z,96554.77
2018-03-29T04:54:46.535Z,96551.23
2018-03-29T04:57:14.046Z,96551.99
2018-03-29T04:59:41.538Z,96553.72
2018-03-29T05:02:09.035Z,96552.55
2018-03-29T05:04:36.594Z,96555.05
2018-03-29T05:07:04.082Z,96556.36
2018-03-29T05:09:31.580Z,96556.05
2018-03-29T05:11:59.094Z,96560.06
2018-03-29T05:14:26.582Z,96568.20
2018-03-29T05:16:54.061Z,96563.22
2018-03-29T05:19:21.575Z,96573.05
2018-03-29T05:21:49.071Z,96580.95
2018-03-29T05:24:16.562Z,96579.27
2018-03-29T05:26:48.991Z,96588.13
2018-03-29T05:29:16.482Z,96592.34
2018-03-29T05:31:43.985Z,96590.90
2018-03-29T05:34:11.504Z,96594.37
2018-03-29T05:36:38.988Z,96590.02
2018-03-29T05:39:06.475Z,96588.43
2018-03-29T05:41:34.031Z,96593.42
2018-03-29T05:44:01.554Z,96592.33
2018-03-29T05:46:29.038Z,96604.09
2018-03-29T05:48:56.563Z,96606.59
2018-03-29T05:51:24.055Z,96615.09
2018-03-29T05:53:51.547Z,96621.28
2018-03-29T05:56:19.066Z,96616.37
2018-03-29T05:58:46.555Z,96616.49
2018-03-29T06:01:14.035Z,96629.27
2018-03-29T06:03:41.547Z,96626.97
2018-03-29T06:06:09.031Z,96624.42
2018-03-29T06:08:36.521Z,96624.09
2018-03-29T06:11:04.056Z,96634.91
2018-03-29T06:13:31.583Z,96631.00
2018-03-29T06:16:05.012Z,96628.66
2018-03-29T06:18:32.502Z,96629.80
2018-03-29T06:21:00.235Z,96630.18
2018-03-29T06:23:27.804Z,96629.50
2018-03-29T06:25:55.278Z,96637.08
2018-03-29T06:28:22.762Z,96633.93
2018-03-29T06:30:50.272Z,96638.91
2018-03-29T06:33:17.766Z,96630.46
2018-03-29T06:35:45.291Z,96628.14
2018-03-29T06:38:12.810Z,96629.94
2018-03-29T06:40:40.294Z,96622.45
2018-03-29T06:43:08.170Z,96624.07
2018-03-29T06:45:35.686Z,96622.55
2018-03-29T06:48:03.179Z,96629.09
2018-03-29T06:50:30.671Z,96628.72
2018-03-29T06:52:58.195Z,96630.97
2018-03-29T06:55:25.703Z,96632.41
2018-03-29T06:57:53.231Z,96627.36
2018-03-29T07:00:20.882Z,96630.56
2018-03-29T07:02:48.506Z,96635.17
2018-03-29T07:05:16.018Z,96637.84
2018-03-29T07:07:43.550Z,96640.88
2018-03-29T07:10:11.173Z,96635.19
2018-03-29T07:12:38.684Z,96638.39
2018-03-29T07:15:06.226Z,96636.41
2018-03-29T07:17:33.783Z,96640.41
2018-03-29T07:20:01.331Z,96631.64
2018-03-29T07:22:28.862Z,96624.05
2018-03-29T07:24:56.388Z,96634.70
2018-03-29T07:27:23.931Z,96640.63
2018-03-29T07:29:51.550Z,96634.39
2018-03-29T07:32:19.221Z,96636.16
2018-03-29T07:34:46.810Z,96636.25
2018-03-29T07:37:14.402Z,96636.80
2018-03-29T07:39:41.890Z,96641.52
2018-03-29T07:42:09.411Z,96643.09
2018-03-29T07:44:36.937Z,96642.95
2018-03-29T07:47:04.442Z,96646.23
2018-03-29T07:49:31.996Z,96642.86
2018-03-29T07:51:59.519Z,96646.53
2018-03-29T07:54:27.001Z,96634.98
2018-03-29T07:56:54.517Z,96644.05
2018-03-29T07:59:22.031Z,96640.69
2018-03-29T08:01:49.560Z,96650.28
2018-03-29T08:04:18.031Z,96664.66
2018-03-29T08:06:45.643Z,96671.89
2018-03-29T08:09:13.126Z,96676.02
2018-03-29T08:11:40.754Z,96683.59
2018-03-29T08:14:08.366Z,96675.52
2018-03-29T08:16:35.887Z,96677.37
2018-03-29T08:19:03.404Z,96680.91
2018-03-29T08:21:31.021Z,96679.44
2018-03-29T08:23:58.618Z,96671.34
2018-03-29T08:26:26.099Z,96673.79
2018-03-29T08:28:53.732Z,96683.09
2018-03-29T08:31:21.218Z,96675.20
2018-03-29T08:33:48.709Z,96680.71
2018-03-29T08:36:16.260Z,96671.69
2018-03-29T08:38:43.878Z,96671.77
2018-03-29T08:41:11.474Z,96673.39
2018-03-29T08:43:39.011Z,96660.52
2018-03-29T08:46:06.527Z,96673.40
2018-03-29T08:48:34.015Z,96673.45
2018-03-29T08:51:01.530Z,96669.64
2018-03-29T08:53:29.021Z,96669.29
2018-03-29T08:55:56.550Z,96684.34
2018-03-29T08:58:24.069Z,96669.95
2018-03-29T09:00:51.553Z,96678.34
2018-03-29T09:03:19.055Z,96685.30
2018-03-29T09:05:46.579Z,96680.51
2018-03-29T09:08:14.076Z,96667.41
2018-03-29T09:10:41.558Z,96659.88
2018-03-29T09:13:09.083Z,96671.28
2018-03-29T09:15:36.585Z,96673.27
2018-03-29T09:18:04.080Z,96675.67
2018-03-29T09:20:31.599Z,96674.27
2018-03-29T09:22:59.091Z,96679.55
2018-03-29T09:25:26.574Z,96672.30
2018-03-29T09:27:54.087Z,96690.34
2018-03-29T09:30:21.579Z,96699.33
2018-03-29T09:32:49.067Z,96698.45
2018-03-29T09:35:16.578Z,96688.41
2018-03-29T09:37:44.075Z,96676.19
2018-03-29T09:40:11.562Z,96693.04
2018-03-29T09:42:39.090Z,96701.41
2018-03-29T09:45:06.574Z,96688.77
2018-03-29T09:47:34.097Z,96675.56
2018-03-29T09:50:01.606Z,96683.67
2018-03-29T09:52:29.131Z,96690.50
2018-03-29T09:54:56.622Z,96688.75
2018-03-29T09:57:24.135Z,96688.97
2018-03-29T09:59:51.621Z,96687.05
2018-03-29T10:02:19.109Z,96690.86
2018-03-29T10:04:52.307Z,96681.01
2018-03-29T10:07:24.667Z,96664.63
2018-03-29T10:09:52.251Z,96659.98
2018-03-29T10:12:19.796Z,96662.36
2018-03-29T10:14:47.324Z,96657.78
2018-03-29T10:17:14.961Z,96657.84
2018-03-29T10:19:42.499Z,96662.87
2018-03-29T10:22:10.032Z,96663.40
2018-03-29T10:24:37.612Z,96676.10
2018-03-29T10:27:05.166Z,96672.27
2018-03-29T10:29:32.739Z,96666.34
2018-03-29T10:32:00.859Z,96664.41
2018-03-29T10:34:28.390Z,96677.60
2018-03-29T10:36:55.934Z,96668.12
2018-03-29T10:39:23.546Z,96672.80
2018-03-29T10:41:51.110Z,96656.33
2018-03-29T10:44:18.678Z,96652.11
2018-03-29T10:46:46.253Z,96643.26
2018-03-29T10:49:13.764Z,96640.21
2018-03-29T10:51:41.268Z,96653.55
2018-03-29T10:54:08.789Z,96624.26
2018-03-29T10:56:36.350Z,96613.55
2018-03-29T10:59:03.994Z,96611.38
2018-03-29T11:01:31.583Z,96613.20
2018-03-29T11:03:59.166Z,96605.14
2018-03-29T11:06:26.714Z,96607.44
2018-03-29T11:08:54.257Z,96609.48
2018-03-29T11:11:21.770Z,96614.19
2018-03-29T11:13:49.345Z,96614.94
2018-03-29T11:16:16.860Z,96605.99
2018-03-29T11:18:44.434Z,96617.42
2018-03-29T11:21:11.952Z,96613.85
2018-03-29T11:23:39.566Z,96612.89
2018-03-29T11:26:07.051Z,96618.06
2018-03-29T11:28:34.609Z,96616.08
2018-03-29T11:31:02.294Z,96610.69
2018-03-29T11:33:29.848Z,96616.39
2018-03-29T11:35:57.315Z,96606.27
2018-03-29T11:38:24.833Z,96611.11
2018-03-29T11:40:52.323Z,96613.72
2018-03-29T11:43:19.827Z,96614.42
2018-03-29T11:45:47.340Z,96609.55
2018-03-29T11:48:14.890Z,96605.47
2018-03-29T11:50:42.380Z,96602.05
2018-03-29T11:53:09.899Z,96594.81
2018-03-29T11:55:37.400Z,96572.28
2018-03-29T11:58:04.882Z,96588.12
2018-03-29T12:00:32.391Z,96588.16
2018-03-29T12:02:59.886Z,96585.29
2018-03-29T12:05:27.410Z,96585.13
2018-03-29T12:07:54.931Z,96599.45
2018-03-29T12:10:22.423Z,96595.00
2018-03-29T12:12:49.906Z,96592.13
2018-03-29T12:15:17.422Z,96575.72
2018-03-29T12:17:45.767Z,96581.89
2018-03-29T12:20:13.259Z,96568.12
2018-03-29T12:22:40.798Z,96571.99
2018-03-29T12:25:08.291Z,96577.47
2018-03-29T12:27:35.779Z,96583.63
2018-03-29T12:30:03.310Z,96580.39
2018-03-29T12:32:31.500Z,96577.73
2018-03-29T12:35:00.156Z,96581.64
2018-03-29T12:37:27.691Z,96581.83
2018-03-29T12:39:55.910Z,96588.54
2018-03-29T12:42:23.408Z,96576.59
2018-03-29T12:44:50.990Z,96577.16
2018-03-29T12:47:18.454Z,96588.61
2018-03-29T12:49:45.946Z,96579.61
2018-03-29T12:52:13.530Z,96580.39
2018-03-29T12:54:52.820Z,96575.70
2018-03-29T12:57:31.990Z,96564.26
2018-03-29T12:59:59.540Z,96572.55
2018-03-29T13:02:27.041Z,96569.81
2018-03-29T13:04:54.560Z,96574.74
2018-03-29T13:07:22.216Z,96567.28
2018-03-29T13:09:49.718Z,96567.00
2018-03-29T13:12:17.991Z,96567.42
2018-03-29T13:14:45.490Z,96557.58
2018-03-29T13:17:12.988Z,96568.36
2018-03-29T13:19:40.738Z,96562.83
2018-03-29T13:22:08.301Z,96561.25
2018-03-29T13:24:35.852Z,96562.55
2018-03-29T13:27:03.378Z,96564.40
2018-03-29T13:29:30.857Z,96559.70
2018-03-29T13:31:58.353Z,96564.95
2018-03-29T13:34:25.884Z,96555.73
2018-03-29T13:36:53.449Z,96554.28
2018-03-29T13:39:20.935Z,96548.12
2018-03-29T13:41:48.458Z,96542.58
2018-03-29T13:44:16.650Z,96544.52
2018-03-29T13:46:44.143Z,96545.91
2018-03-29T13:49:11.673Z,96544.49
2018-03-29T13:51:39.163Z,96539.76
2018-03-29T13:54:06.670Z,96543.74
2018-03-29T13:56:34.181Z,96539.83
2018-03-29T13:59:01.670Z,96537.77
2018-03-29T14:01:29.163Z,96539.56
2018-03-29T14:03:56.674Z,96527.39
2018-03-29T14:06:24.182Z,96523.36
2018-03-29T14:08:51.683Z,96510.69
2018-03-29T14:11:19.246Z,96506.68
2018-03-29T14:13:46.761Z,96505.09
2018-03-29T14:16:14.246Z,96501.50
2018-03-29T14:18:41.788Z,96500.05
2018-03-29T14:21:09.274Z,96503.88
2018-03-29T14:23:36.835Z,96499.30
2018-03-29T14:26:04.316Z,96508.72
2018-03-29T14:28:31.829Z,96507.97
2018-03-29T14:30:59.323Z,96509.84
2018-03-29T14:33:26.838Z,96503.88
2018-03-29T14:35:54.324Z,96503.88
2018-03-29T14:38:21.822Z,96511.29
2018-03-29T14:40:49.354Z,96503.37
2018-03-29T14:43:16.928Z,96505.72
2018-03-29T14:45:44.431Z,96511.72
2018-03-29T14:48:11.991Z,96521.08
2018-03-29T14:50:39.482Z,96516.53
2018-03-29T14:53:06.969Z,96521.41
2018-03-29T14:55:34.485Z,96521.00
2018-03-29T14:58:01.979Z,96516.92
2018-03-29T15:00:29.627Z,96516.91
2018-03-29T15:02:57.196Z,96523.19
2018-03-29T15:05:24.687Z,96523.25
2018-03-29T15:07:52.174Z,96521.53
2018-03-29T15:10:19.688Z,96526.55
2018-03-29T15:12:47.189Z,96533.04
2018-03-29T15:15:14.681Z,96537.78
2018-03-29T15:17:42.190Z,96536.48
2018-03-29T15:20:09.681Z,96535.91
2018-03-29T15:22:37.169Z,96540.10
2018-03-29T15:25:04.792Z,96534.45
2018-03-29T15:27:32.282Z,96527.67
2018-03-29T15:29:59.771Z,96532.16
2018-03-29T15:32:27.289Z,96528.10
2018-03-29T15:34:54.775Z,96531.95
2018-03-29T15:37:22.303Z,96526.70
2018-03-29T15:39:49.852Z,96528.84
2018-03-29T15:42:17.378Z,96529.00
2018-03-29T15:44:44.875Z,96533.37
2018-03-29T15:47:12.392Z,96531.01
2018-03-29T15:49:39.899Z,96533.96
2018-03-29T15:52:07.382Z,96530.20
2018-03-29T15:54:34.899Z,96528.56
2018-03-29T15:57:02.401Z,96529.29
2018-03-29T15:59:29.889Z,96520.40
2018-03-29T16:01:57.418Z,96523.48
2018-03-29T16:04:24.921Z,96526.72
2018-03-29T16:06:52.410Z,96541.67
2018-03-29T16:09:20.010Z,96538.05
2018-03-29T16:11:47.530Z,96541.78
2018-03-29T16:14:15.017Z,96544.43
2018-03-29T16:16:42.558Z,96542.38
2018-03-29T16:19:10.047Z,96553.50
2018-03-29T16:21:37.530Z,96557.21
2018-03-29T16:24:05.047Z,96548.20
2018-03-29T16:26:32.534Z,96542.55
2018-03-29T16:29:00.015Z,96546.47
2018-03-29T16:31:27.530Z,96550.59
2018-03-29T16:33:55.035Z,96551.47
2018-03-29T16:36:22.645Z,96541.04
2018-03-29T16:38:50.170Z,96543.91
2018-03-29T16:41:17.663Z,96549.56
2018-03-29T16:43:45.161Z,96549.46
2018-03-29T16:46:12.691Z,96546.69
2018-03-29T16:48:40.183Z,96551.50
2018-03-29T16:51:07.682Z,96552.70
2018-03-29T16:53:35.189Z,96557.16
2018-03-29T16:56:02.691Z,96551.95
2018-03-29T16:58:30.195Z,96559.36
2018-03-29T17:00:57.722Z,96553.94
2018-03-29T17:03:25.219Z,96549.45
2018-03-29T17:05:52.729Z,96564.81
2018-03-29T17:08:20.251Z,96565.87
2018-03-29T17:10:47.748Z,96572.45
2018-03-29T17:13:15.240Z,96574.70
2018-03-29T17:15:42.757Z,96576.31
2018-03-29T17:18:10.254Z,96583.31
2018-03-29T17:20:37.758Z,96586.53
2018-03-29T17:23:05.271Z,96598.29
2018-03-29T17:25:32.772Z,96593.61
2018-03-29T17:28:00.260Z,96599.38
2018-03-29T17:30:27.772Z,96595.74
2018-03-29T17:32:55.267Z,96599.61
2018-03-29T17:35:22.758Z,96595.05
2018-03-29T17:37:50.347Z,96583.77
2018-03-29T17:40:17.910Z,96599.33
2018-03-29T17:42:45.406Z,96601.56
2018-03-29T17:45:12.927Z,96612.59
2018-03-29T17:47:40.420Z,96622.80
2018-03-29T17:50:07.922Z,96619.64
2018-03-29T17:52:35.448Z,96622.11
2018-03-29T17:55:02.934Z,96623.41
2018-03-29T17:57:30.419Z,96631.48
2018-03-29T17:59:57.935Z,96630.92
2018-03-29T18:02:25.438Z,96629.38
2018-03-29T18:04:52.966Z,96634.23
2018-03-29T18:07:20.482Z,96642.08
2018-03-29T18:09:47.958Z,96658.64
2018-03-29T18:12:15.449Z,96636.56
2018-03-29T18:14:43.028Z,96643.57
2018-03-29T18:17:10.532Z,96647.77
2018-03-29T18:19:38.014Z,96651.97
2018-03-29T18:22:05.540Z,96654.95
2018-03-29T18:24:33.028Z,96668.52
2018-03-29T18:27:00.507Z,96665.41
2018-03-29T18:29:28.040Z,96668.82
2018-03-29T18:31:55.539Z,96681.67
2018-03-29T18:34:23.027Z,96684.34
2018-03-29T18:36:50.553Z,96684.38
2018-03-29T18:39:18.055Z,96688.42
2018-03-29T18:41:45.533Z,96690.02
2018-03-29T18:44:13.044Z,96689.67
2018-03-29T18:46:40.535Z,96684.54
2018-03-29T18:49:08.022Z,96692.52
2018-03-29T18:51:35.533Z,96696.68
2018-03-29T18:54:03.023Z,96698.53
2018-03-29T18:56:30.506Z,96709.96
2018-03-29T18:58:58.013Z,96704.70
2018-03-29T19:01:25.537Z,96715.59
2018-03-29T19:03:53.058Z,96720.22
2018-03-29T19:06:20.579Z,96726.79
2018-03-29T19:08:48.070Z,96728.58
2018-03-29T19:11:15.558Z,96730.05
2018-03-29T19:13:43.078Z,96733.36
2018-03-29T19:16:10.572Z,96735.34
2018-03-29T19:18:38.071Z,96733.63
2018-03-29T19:21:05.596Z,96734.94
2018-03-29T19:23:33.129Z,96736.77
2018-03-29T19:26:00.623Z,96735.18
2018-03-29T19:28:28.226Z,96735.83
2018-03-29T19:30:55.718Z,96734.68
2018-03-29T19:33:23.210Z,96729.11
2018-03-29T19:35:50.726Z,96727.62
2018-03-29T19:38:18.223Z,96722.38
2018-03-29T19:40:45.712Z,96722.41
2018-03-29T19:43:13.239Z,96728.20
2018-03-29T19:45:40.730Z,96726.84
2018-03-29T19:48:08.227Z,96727.75
2018-03-29T19:50:35.750Z,96725.25
2018-03-29T19:53:03.247Z,96732.66
2018-03-29T19:55:30.741Z,96735.12
2018-03-29T19:57:58.260Z,96733.66
2018-03-29T20:00:25.745Z,96734.74
2018-03-29T20:02:53.254Z,96730.52
2018-03-29T20:05:20.789Z,96732.22
2018-03-29T20:07:48.287Z,96733.58
2018-03-29T20:10:15.791Z,96741.05
2018-03-29T20:12:43.434Z,96745.71
2018-03-29T20:15:10.922Z,96737.57
2018-03-29T20:17:38.414Z,96743.03
2018-03-29T20:20:05.925Z,96740.70
2018-03-29T20:22:33.427Z,96746.06
2018-03-29T20:25:00.926Z,96740.82
2018-03-29T20:27:28.434Z,96747.59
2018-03-29T20:29:55.926Z,96742.48
2018-03-29T20:32:23.420Z,96744.53
2018-03-29T20:34:50.939Z,96738.58
2018-03-29T20:37:18.417Z,96747.87
2018-03-29T20:39:45.910Z,96740.86
2018-03-29T20:42:13.431Z,96742.65
2018-03-29T20:44:40.962Z,96740.73
2018-03-29T20:47:08.463Z,96738.27
2018-03-29T20:49:35.987Z,96737.81
2018-03-29T20:52:03.644Z,96735.80
2018-03-29T20:54:31.388Z,96738.73
2018-03-29T20:56:58.947Z,96733.26
2018-03-29T20:59:26.434Z,96731.13
2018-03-29T21:01:54.032Z,96727.34
2018-03-29T21:04:21.798Z,96732.59
2018-03-29T21:06:49.331Z,96731.89
2018-03-29T21:09:16.819Z,96735.12
2018-03-29T21:11:44.566Z,96728.38
2018-03-29T21:14:12.235Z,96737.09
2018-03-29T21:16:39.769Z,96739.72
2018-03-29T21:19:07.294Z,96742.08
2018-03-29T21:21:34.796Z,96739.09
2018-03-29T21:24:02.289Z,96735.88
2018-03-29T21:26:29.816Z,96754.66
2018-03-29T21:28:57.354Z,96752.07
2018-03-29T21:31:24.834Z,96751.86
2018-03-29T21:33:52.368Z,96753.21
2018-03-29T21:36:19.875Z,96752.51
2018-03-29T21:38:47.442Z,96760.45
2018-03-29T21:41:14.963Z,96758.38
2018-03-29T21:43:42.460Z,96749.75
2018-03-29T21:46:09.949Z,96753.70
2018-03-29T21:48:37.470Z,96761.25
2018-03-29T21:51:05.106Z,96753.22
2018-03-29T21:53:32.605Z,96750.20
2018-03-29T21:56:00.122Z,96753.02
2018-03-29T21:58:27.637Z,96749.16
2018-03-29T22:00:55.132Z,96755.66
2018-03-29T22:03:22.659Z,96754.97
2018-03-29T22:05:50.152Z,96754.97
2018-03-29T22:08:17.643Z,96754.19
2018-03-29T22:10:45.161Z,96758.92
2018-03-29T22:13:12.654Z,96768.08
2018-03-29T22:15:40.374Z,96767.00
2018-03-29T22:18:07.932Z,96774.48
2018-03-29T22:20:35.433Z,96775.03
2018-03-29T22:23:02.935Z,96780.78
2018-03-29T22:25:30.491Z,96782.72
2018-03-29T22:27:57.986Z,96784.14
2018-03-29T22:30:25.492Z,96784.24
2018-03-29T22:32:53.065Z,96781.25
2018-03-29T22:35:20.631Z,96787.36
2018-03-29T22:37:48.125Z,96788.62
2018-03-29T22:40:15.680Z,96794.34
2018-03-29T22:42:43.178Z,96800.92
2018-03-29T22:45:10.667Z,96803.64
2018-03-29T22:47:38.195Z,96798.73
2018-03-29T22:50:05.691Z,96802.41
2018-03-29T22:52:33.240Z,96795.13
2018-03-29T22:55:00.759Z,96792.16
2018-03-29T22:57:28.255Z,96794.90
2018-03-29T22:59:55.755Z,96792.71
2018-03-29T23:02:23.299Z,96788.33
2018-03-29T23:04:50.785Z,96786.09
2018-03-29T23:07:18.276Z,96778.77
2018-03-29T23:09:45.793Z,96780.20
2018-03-29T23:12:13.288Z,96790.63
2018-03-29T23:14:40.786Z,96791.40
2018-03-29T23:17:08.309Z,96794.39
2018-03-29T23:19:35.817Z,96792.37
2018-03-29T23:22:03.359Z,96794.47
2018-03-29T23:24:30.878Z,96798.61
2018-03-29T23:26:58.407Z,96791.73
2018-03-29T23:29:25.900Z,96792.34
2018-03-29T23:31:53.422Z,96788.23
2018-03-29T23:34:20.914Z,96787.80
2018-03-29T23:36:48.407Z,96784.72
2018-03-29T23:39:15.934Z,96782.98
2018-03-29T23:41:43.421Z,96782.16
2018-03-29T23:44:10.924Z,96786.03
2018-03-29T23:46:38.456Z,96781.52
2018-03-29T23:49:05.964Z,96783.44
2018-03-29T23:51:33.457Z,96786.50
2018-03-29T23:54:00.978Z,96787.56
2018-03-29T23:56:28.472Z,96796.30
2018-03-29T23:58:55.967Z,96790.05
